sensor_id;sensor_type;location;lat;lon;timestamp;temperature;humidity
4530;DHT22;2277;51.626;7.516;2023-07-31T00:00:26;18.20;99.90
4530;DHT22;2277;51.626;7.516;2023-07-31T00:02:52;18.20;99.90
4530;DHT22;2277;51.626;7.516;2023-07-31T00:05:18;18.20;99.90
4530;DHT22;2277;51.626;7.516;2023-07-31T00:07:44;18.20;99.90
4530;DHT22;2277;51.626;7.516;2023-07-31T00:10:09;18.10;99.90
4530;DHT22;2277;51.626;7.516;2023-07-31T00:12:35;18.10;99.90
4530;DHT22;2277;51.626;7.516;2023-07-31T00:15:01;18.10;99.90
4530;DHT22;2277;51.626;7.516;2023-07-31T00:17:27;18.00;99.90
4530;DHT22;2277;51.626;7.516;2023-07-31T00:19:53;18.00;99.90
4530;DHT22;2277;51.626;7.516;2023-07-31T00:22:19;18.00;99.90
4530;DHT22;2277;51.626;7.516;2023-07-31T00:24:44;18.00;99.90
4530;DHT22;2277;51.626;7.516;2023-07-31T00:27:10;18.00;99.90
4530;DHT22;2277;51.626;7.516;2023-07-31T00:29:35;18.10;99.90
4530;DHT22;2277;51.626;7.516;2023-07-31T00:32:01;18.10;99.90
4530;DHT22;2277;51.626;7.516;2023-07-31T00:34:26;18.20;99.90
4530;DHT22;2277;51.626;7.516;2023-07-31T00:36:52;18.20;99.90
4530;DHT22;2277;51.626;7.516;2023-07-31T00:39:18;18.10;99.90
4530;DHT22;2277;51.626;7.516;2023-07-31T00:41:43;18.20;99.90
4530;DHT22;2277;51.626;7.516;2023-07-31T00:44:09;18.20;99.90
4530;DHT22;2277;51.626;7.516;2023-07-31T00:46:34;18.20;99.90
4530;DHT22;2277;51.626;7.516;2023-07-31T00:49:00;18.20;99.90
4530;DHT22;2277;51.626;7.516;2023-07-31T00:51:25;18.20;99.90
4530;DHT22;2277;51.626;7.516;2023-07-31T00:53:51;18.20;99.90
4530;DHT22;2277;51.626;7.516;2023-07-31T00:56:19;18.20;99.90
4530;DHT22;2277;51.626;7.516;2023-07-31T00:58:45;18.20;99.90
4530;DHT22;2277;51.626;7.516;2023-07-31T01:01:10;18.20;99.90
4530;DHT22;2277;51.626;7.516;2023-07-31T01:03:36;18.20;99.90
4530;DHT22;2277;51.626;7.516;2023-07-31T01:09:03;18.20;99.90
4530;DHT22;2277;51.626;7.516;2023-07-31T01:11:31;18.20;99.90
4530;DHT22;2277;51.626;7.516;2023-07-31T01:13:57;18.20;99.90
4530;DHT22;2277;51.626;7.516;2023-07-31T01:16:25;18.10;99.90
4530;DHT22;2277;51.626;7.516;2023-07-31T01:18:51;18.10;99.90
4530;DHT22;2277;51.626;7.516;2023-07-31T01:26:42;18.10;99.90
4530;DHT22;2277;51.626;7.516;2023-07-31T01:29:17;18.10;99.90
4530;DHT22;2277;51.626;7.516;2023-07-31T01:31:48;18.10;99.90
4530;DHT22;2277;51.626;7.516;2023-07-31T01:34:17;18.10;99.90
4530;DHT22;2277;51.626;7.516;2023-07-31T01:36:44;18.10;99.90
4530;DHT22;2277;51.626;7.516;2023-07-31T01:39:09;18.20;99.90
4530;DHT22;2277;51.626;7.516;2023-07-31T01:41:35;18.20;99.90
4530;DHT22;2277;51.626;7.516;2023-07-31T01:44:00;18.10;99.90
4530;DHT22;2277;51.626;7.516;2023-07-31T01:46:26;18.20;99.90
4530;DHT22;2277;51.626;7.516;2023-07-31T01:48:52;18.20;99.90
4530;DHT22;2277;51.626;7.516;2023-07-31T01:51:17;18.20;99.90
4530;DHT22;2277;51.626;7.516;2023-07-31T01:53:43;18.20;99.90
4530;DHT22;2277;51.626;7.516;2023-07-31T01:56:08;18.20;99.90
4530;DHT22;2277;51.626;7.516;2023-07-31T01:58:34;18.20;99.90
4530;DHT22;2277;51.626;7.516;2023-07-31T02:00:59;18.10;99.90
4530;DHT22;2277;51.626;7.516;2023-07-31T02:03:25;18.20;99.90
4530;DHT22;2277;51.626;7.516;2023-07-31T02:05:51;18.20;99.90
4530;DHT22;2277;51.626;7.516;2023-07-31T02:08:16;18.20;99.90
4530;DHT22;2277;51.626;7.516;2023-07-31T02:10:42;18.20;99.90
4530;DHT22;2277;51.626;7.516;2023-07-31T02:13:08;18.20;99.90
4530;DHT22;2277;51.626;7.516;2023-07-31T02:15:35;18.30;99.90
4530;DHT22;2277;51.626;7.516;2023-07-31T02:18:00;18.20;99.90
4530;DHT22;2277;51.626;7.516;2023-07-31T02:20:26;18.30;99.90
4530;DHT22;2277;51.626;7.516;2023-07-31T02:22:52;18.20;99.90
4530;DHT22;2277;51.626;7.516;2023-07-31T02:25:17;18.20;99.90
4530;DHT22;2277;51.626;7.516;2023-07-31T02:27:43;18.10;99.90
4530;DHT22;2277;51.626;7.516;2023-07-31T02:30:09;18.10;99.90
4530;DHT22;2277;51.626;7.516;2023-07-31T02:32:34;18.10;99.90
4530;DHT22;2277;51.626;7.516;2023-07-31T02:35:00;18.10;99.90
4530;DHT22;2277;51.626;7.516;2023-07-31T02:37:26;18.10;99.90
4530;DHT22;2277;51.626;7.516;2023-07-31T02:39:54;18.10;99.90
4530;DHT22;2277;51.626;7.516;2023-07-31T02:42:19;18.00;99.90
4530;DHT22;2277;51.626;7.516;2023-07-31T02:44:45;18.00;99.90
4530;DHT22;2277;51.626;7.516;2023-07-31T02:47:10;18.00;99.90
4530;DHT22;2277;51.626;7.516;2023-07-31T02:49:36;18.00;99.90
4530;DHT22;2277;51.626;7.516;2023-07-31T02:52:01;18.00;99.90
4530;DHT22;2277;51.626;7.516;2023-07-31T02:54:27;18.00;99.90
4530;DHT22;2277;51.626;7.516;2023-07-31T02:56:53;18.00;99.90
4530;DHT22;2277;51.626;7.516;2023-07-31T02:59:18;18.10;99.90
4530;DHT22;2277;51.626;7.516;2023-07-31T03:01:44;18.10;99.90
4530;DHT22;2277;51.626;7.516;2023-07-31T03:04:10;18.10;99.90
4530;DHT22;2277;51.626;7.516;2023-07-31T03:06:35;18.10;99.90
4530;DHT22;2277;51.626;7.516;2023-07-31T03:09:01;18.10;99.90
4530;DHT22;2277;51.626;7.516;2023-07-31T03:11:26;18.20;99.90
4530;DHT22;2277;51.626;7.516;2023-07-31T03:13:53;18.10;99.90
4530;DHT22;2277;51.626;7.516;2023-07-31T03:16:19;18.10;99.90
4530;DHT22;2277;51.626;7.516;2023-07-31T03:18:44;18.10;99.90
4530;DHT22;2277;51.626;7.516;2023-07-31T03:21:10;18.10;99.90
4530;DHT22;2277;51.626;7.516;2023-07-31T03:23:36;18.10;99.90
4530;DHT22;2277;51.626;7.516;2023-07-31T03:26:03;18.10;99.90
4530;DHT22;2277;51.626;7.516;2023-07-31T03:28:29;18.10;99.90
4530;DHT22;2277;51.626;7.516;2023-07-31T03:30:55;18.10;99.90
4530;DHT22;2277;51.626;7.516;2023-07-31T03:33:21;18.10;99.90
4530;DHT22;2277;51.626;7.516;2023-07-31T03:35:46;18.10;99.90
4530;DHT22;2277;51.626;7.516;2023-07-31T03:38:12;18.20;99.90
4530;DHT22;2277;51.626;7.516;2023-07-31T03:40:38;18.10;99.90
4530;DHT22;2277;51.626;7.516;2023-07-31T03:43:03;18.20;99.90
4530;DHT22;2277;51.626;7.516;2023-07-31T03:45:29;18.20;99.90
4530;DHT22;2277;51.626;7.516;2023-07-31T03:47:55;18.20;99.90
4530;DHT22;2277;51.626;7.516;2023-07-31T03:50:20;18.20;99.90
4530;DHT22;2277;51.626;7.516;2023-07-31T03:52:46;18.20;99.90
4530;DHT22;2277;51.626;7.516;2023-07-31T03:55:12;18.20;99.90
4530;DHT22;2277;51.626;7.516;2023-07-31T03:57:37;18.20;99.90
4530;DHT22;2277;51.626;7.516;2023-07-31T04:00:03;18.20;99.90
4530;DHT22;2277;51.626;7.516;2023-07-31T04:02:29;18.20;99.90
4530;DHT22;2277;51.626;7.516;2023-07-31T04:04:54;18.20;99.90
4530;DHT22;2277;51.626;7.516;2023-07-31T04:07:20;18.20;99.90
4530;DHT22;2277;51.626;7.516;2023-07-31T04:09:46;18.20;99.90
4530;DHT22;2277;51.626;7.516;2023-07-31T04:12:11;18.30;99.90
4530;DHT22;2277;51.626;7.516;2023-07-31T04:14:37;18.30;99.90
4530;DHT22;2277;51.626;7.516;2023-07-31T04:17:02;18.30;99.90
4530;DHT22;2277;51.626;7.516;2023-07-31T04:19:28;18.30;99.90
4530;DHT22;2277;51.626;7.516;2023-07-31T04:21:53;18.30;99.90
4530;DHT22;2277;51.626;7.516;2023-07-31T04:24:19;18.40;99.90
4530;DHT22;2277;51.626;7.516;2023-07-31T04:26:50;18.40;99.90
4530;DHT22;2277;51.626;7.516;2023-07-31T04:29:15;18.40;99.90
4530;DHT22;2277;51.626;7.516;2023-07-31T04:31:41;18.40;99.90
4530;DHT22;2277;51.626;7.516;2023-07-31T04:34:07;18.50;99.90
4530;DHT22;2277;51.626;7.516;2023-07-31T04:36:33;18.40;99.90
4530;DHT22;2277;51.626;7.516;2023-07-31T04:38:59;18.50;99.90
4530;DHT22;2277;51.626;7.516;2023-07-31T04:41:25;18.50;99.90
4530;DHT22;2277;51.626;7.516;2023-07-31T04:43:50;18.50;99.90
4530;DHT22;2277;51.626;7.516;2023-07-31T04:46:16;18.50;99.90
4530;DHT22;2277;51.626;7.516;2023-07-31T04:48:42;18.50;99.90
4530;DHT22;2277;51.626;7.516;2023-07-31T04:51:08;18.60;99.90
4530;DHT22;2277;51.626;7.516;2023-07-31T04:53:35;18.60;99.90
4530;DHT22;2277;51.626;7.516;2023-07-31T04:56:00;18.60;99.90
4530;DHT22;2277;51.626;7.516;2023-07-31T04:58:26;18.60;99.90
4530;DHT22;2277;51.626;7.516;2023-07-31T05:00:52;18.70;99.90
4530;DHT22;2277;51.626;7.516;2023-07-31T05:03:17;18.70;99.90
4530;DHT22;2277;51.626;7.516;2023-07-31T05:05:43;18.70;99.90
4530;DHT22;2277;51.626;7.516;2023-07-31T05:08:08;18.70;99.90
4530;DHT22;2277;51.626;7.516;2023-07-31T05:10:34;18.70;99.90
4530;DHT22;2277;51.626;7.516;2023-07-31T05:13:00;18.70;99.90
4530;DHT22;2277;51.626;7.516;2023-07-31T05:15:25;18.70;99.90
4530;DHT22;2277;51.626;7.516;2023-07-31T05:17:51;18.80;99.90
4530;DHT22;2277;51.626;7.516;2023-07-31T05:20:17;18.80;99.90
4530;DHT22;2277;51.626;7.516;2023-07-31T05:22:42;18.80;99.90
4530;DHT22;2277;51.626;7.516;2023-07-31T05:25:08;18.70;99.90
4530;DHT22;2277;51.626;7.516;2023-07-31T05:27:33;18.70;99.90
4530;DHT22;2277;51.626;7.516;2023-07-31T05:29:59;18.60;99.90
4530;DHT22;2277;51.626;7.516;2023-07-31T05:32:25;18.70;99.90
4530;DHT22;2277;51.626;7.516;2023-07-31T05:34:51;18.70;99.90
4530;DHT22;2277;51.626;7.516;2023-07-31T05:37:17;18.60;99.90
4530;DHT22;2277;51.626;7.516;2023-07-31T05:39:43;18.60;99.90
4530;DHT22;2277;51.626;7.516;2023-07-31T05:42:08;18.60;99.90
4530;DHT22;2277;51.626;7.516;2023-07-31T05:44:34;18.50;99.90
4530;DHT22;2277;51.626;7.516;2023-07-31T05:47:00;18.50;99.90
4530;DHT22;2277;51.626;7.516;2023-07-31T05:49:25;18.50;99.90
4530;DHT22;2277;51.626;7.516;2023-07-31T05:51:51;18.50;99.90
4530;DHT22;2277;51.626;7.516;2023-07-31T05:54:16;18.40;99.90
4530;DHT22;2277;51.626;7.516;2023-07-31T05:56:42;18.40;99.90
4530;DHT22;2277;51.626;7.516;2023-07-31T05:59:09;18.40;99.90
4530;DHT22;2277;51.626;7.516;2023-07-31T06:01:35;18.40;99.90
4530;DHT22;2277;51.626;7.516;2023-07-31T06:04:01;18.40;99.90
4530;DHT22;2277;51.626;7.516;2023-07-31T06:06:28;18.50;99.90
4530;DHT22;2277;51.626;7.516;2023-07-31T06:08:54;18.50;99.90
4530;DHT22;2277;51.626;7.516;2023-07-31T06:11:20;18.60;99.90
4530;DHT22;2277;51.626;7.516;2023-07-31T06:13:46;18.60;99.90
4530;DHT22;2277;51.626;7.516;2023-07-31T06:16:13;18.60;99.90
4530;DHT22;2277;51.626;7.516;2023-07-31T06:18:39;18.60;99.90
4530;DHT22;2277;51.626;7.516;2023-07-31T06:21:05;18.70;99.90
4530;DHT22;2277;51.626;7.516;2023-07-31T06:23:31;18.70;99.90
4530;DHT22;2277;51.626;7.516;2023-07-31T06:25:56;18.60;99.90
4530;DHT22;2277;51.626;7.516;2023-07-31T06:28:27;18.60;99.90
4530;DHT22;2277;51.626;7.516;2023-07-31T06:30:54;18.60;99.90
4530;DHT22;2277;51.626;7.516;2023-07-31T06:33:20;18.60;99.90
4530;DHT22;2277;51.626;7.516;2023-07-31T06:35:45;18.60;99.90
4530;DHT22;2277;51.626;7.516;2023-07-31T06:38:11;18.60;99.90
4530;DHT22;2277;51.626;7.516;2023-07-31T06:40:36;18.50;99.90
4530;DHT22;2277;51.626;7.516;2023-07-31T06:43:02;18.50;99.90
4530;DHT22;2277;51.626;7.516;2023-07-31T06:45:34;18.50;99.90
4530;DHT22;2277;51.626;7.516;2023-07-31T06:48:00;18.50;99.90
4530;DHT22;2277;51.626;7.516;2023-07-31T06:50:33;18.50;99.90
4530;DHT22;2277;51.626;7.516;2023-07-31T06:52:59;18.40;99.90
4530;DHT22;2277;51.626;7.516;2023-07-31T06:55:25;18.40;99.90
4530;DHT22;2277;51.626;7.516;2023-07-31T06:57:52;18.30;99.90
4530;DHT22;2277;51.626;7.516;2023-07-31T07:00:19;18.30;99.90
4530;DHT22;2277;51.626;7.516;2023-07-31T07:02:45;18.30;99.90
4530;DHT22;2277;51.626;7.516;2023-07-31T07:05:13;18.40;99.90
4530;DHT22;2277;51.626;7.516;2023-07-31T07:07:39;18.30;99.90
4530;DHT22;2277;51.626;7.516;2023-07-31T07:10:05;18.40;99.90
4530;DHT22;2277;51.626;7.516;2023-07-31T07:12:32;18.40;99.90
4530;DHT22;2277;51.626;7.516;2023-07-31T07:14:58;18.40;99.90
4530;DHT22;2277;51.626;7.516;2023-07-31T07:17:24;18.30;99.90
4530;DHT22;2277;51.626;7.516;2023-07-31T07:19:50;18.30;99.90
4530;DHT22;2277;51.626;7.516;2023-07-31T07:22:15;18.30;99.90
4530;DHT22;2277;51.626;7.516;2023-07-31T07:24:41;18.30;99.90
4530;DHT22;2277;51.626;7.516;2023-07-31T07:27:07;18.30;99.90
4530;DHT22;2277;51.626;7.516;2023-07-31T07:29:34;18.30;99.90
4530;DHT22;2277;51.626;7.516;2023-07-31T07:32:00;18.20;99.90
4530;DHT22;2277;51.626;7.516;2023-07-31T07:34:26;18.30;99.90
4530;DHT22;2277;51.626;7.516;2023-07-31T07:36:52;18.30;99.90
4530;DHT22;2277;51.626;7.516;2023-07-31T07:39:18;18.30;99.90
4530;DHT22;2277;51.626;7.516;2023-07-31T07:41:43;18.20;99.90
4530;DHT22;2277;51.626;7.516;2023-07-31T07:44:09;18.30;99.90
4530;DHT22;2277;51.626;7.516;2023-07-31T07:46:35;18.40;99.90
4530;DHT22;2277;51.626;7.516;2023-07-31T07:49:00;18.30;99.90
4530;DHT22;2277;51.626;7.516;2023-07-31T07:51:26;18.30;99.90
4530;DHT22;2277;51.626;7.516;2023-07-31T07:53:52;18.40;99.90
4530;DHT22;2277;51.626;7.516;2023-07-31T07:56:17;18.40;99.90
4530;DHT22;2277;51.626;7.516;2023-07-31T07:58:43;18.40;99.90
4530;DHT22;2277;51.626;7.516;2023-07-31T08:01:08;18.40;99.90
4530;DHT22;2277;51.626;7.516;2023-07-31T08:03:34;18.40;99.90
4530;DHT22;2277;51.626;7.516;2023-07-31T08:06:00;18.40;99.90
4530;DHT22;2277;51.626;7.516;2023-07-31T08:08:27;18.50;99.90
4530;DHT22;2277;51.626;7.516;2023-07-31T08:10:53;18.40;99.90
4530;DHT22;2277;51.626;7.516;2023-07-31T08:13:18;18.40;99.90
4530;DHT22;2277;51.626;7.516;2023-07-31T08:15:44;18.40;99.90
4530;DHT22;2277;51.626;7.516;2023-07-31T08:18:12;18.40;99.90
4530;DHT22;2277;51.626;7.516;2023-07-31T08:20:38;18.40;99.90
4530;DHT22;2277;51.626;7.516;2023-07-31T08:23:03;18.30;99.90
4530;DHT22;2277;51.626;7.516;2023-07-31T08:25:29;18.30;99.90
4530;DHT22;2277;51.626;7.516;2023-07-31T08:27:55;18.40;99.90
4530;DHT22;2277;51.626;7.516;2023-07-31T08:30:21;18.30;99.90
4530;DHT22;2277;51.626;7.516;2023-07-31T08:32:47;18.40;99.90
4530;DHT22;2277;51.626;7.516;2023-07-31T08:35:12;18.40;99.90
4530;DHT22;2277;51.626;7.516;2023-07-31T08:37:38;18.40;99.90
4530;DHT22;2277;51.626;7.516;2023-07-31T08:40:05;18.50;99.90
4530;DHT22;2277;51.626;7.516;2023-07-31T08:42:31;18.50;99.90
4530;DHT22;2277;51.626;7.516;2023-07-31T08:44:57;18.50;99.90
4530;DHT22;2277;51.626;7.516;2023-07-31T08:47:26;18.50;99.90
4530;DHT22;2277;51.626;7.516;2023-07-31T08:49:52;18.60;99.90
4530;DHT22;2277;51.626;7.516;2023-07-31T08:52:29;18.60;99.90
4530;DHT22;2277;51.626;7.516;2023-07-31T08:54:55;18.50;99.90
4530;DHT22;2277;51.626;7.516;2023-07-31T08:57:20;18.60;99.90
4530;DHT22;2277;51.626;7.516;2023-07-31T08:59:46;18.60;99.90
4530;DHT22;2277;51.626;7.516;2023-07-31T09:02:15;18.50;99.90
4530;DHT22;2277;51.626;7.516;2023-07-31T09:04:42;18.50;99.90
4530;DHT22;2277;51.626;7.516;2023-07-31T09:07:08;18.50;99.90
4530;DHT22;2277;51.626;7.516;2023-07-31T09:09:34;18.40;99.90
4530;DHT22;2277;51.626;7.516;2023-07-31T09:12:00;18.50;99.90
4530;DHT22;2277;51.626;7.516;2023-07-31T09:14:26;18.50;99.90
4530;DHT22;2277;51.626;7.516;2023-07-31T09:16:56;18.40;99.90
4530;DHT22;2277;51.626;7.516;2023-07-31T09:19:26;18.40;99.90
4530;DHT22;2277;51.626;7.516;2023-07-31T09:21:52;18.30;99.90
4530;DHT22;2277;51.626;7.516;2023-07-31T09:24:32;18.20;99.90
4530;DHT22;2277;51.626;7.516;2023-07-31T09:26:59;18.20;99.90
4530;DHT22;2277;51.626;7.516;2023-07-31T09:29:26;18.30;99.90
4530;DHT22;2277;51.626;7.516;2023-07-31T09:31:53;18.20;99.90
4530;DHT22;2277;51.626;7.516;2023-07-31T09:34:19;18.20;99.90
4530;DHT22;2277;51.626;7.516;2023-07-31T09:36:49;18.30;99.90
4530;DHT22;2277;51.626;7.516;2023-07-31T09:39:16;18.20;99.90
4530;DHT22;2277;51.626;7.516;2023-07-31T09:41:53;18.30;99.90
4530;DHT22;2277;51.626;7.516;2023-07-31T09:44:18;18.20;99.90
4530;DHT22;2277;51.626;7.516;2023-07-31T09:46:44;18.20;99.90
4530;DHT22;2277;51.626;7.516;2023-07-31T09:49:10;18.20;99.90
4530;DHT22;2277;51.626;7.516;2023-07-31T09:51:40;18.20;99.90
4530;DHT22;2277;51.626;7.516;2023-07-31T09:54:14;18.20;99.90
4530;DHT22;2277;51.626;7.516;2023-07-31T09:56:48;18.20;99.90
4530;DHT22;2277;51.626;7.516;2023-07-31T09:59:20;18.20;99.90
4530;DHT22;2277;51.626;7.516;2023-07-31T10:01:46;18.20;99.90
4530;DHT22;2277;51.626;7.516;2023-07-31T10:04:14;18.20;99.90
4530;DHT22;2277;51.626;7.516;2023-07-31T10:06:40;18.20;99.90
4530;DHT22;2277;51.626;7.516;2023-07-31T10:09:11;18.30;99.90
4530;DHT22;2277;51.626;7.516;2023-07-31T10:11:48;18.30;99.90
4530;DHT22;2277;51.626;7.516;2023-07-31T10:14:20;18.40;99.90
4530;DHT22;2277;51.626;7.516;2023-07-31T10:16:45;18.40;99.90
4530;DHT22;2277;51.626;7.516;2023-07-31T10:19:12;18.40;99.90
4530;DHT22;2277;51.626;7.516;2023-07-31T10:21:38;18.50;99.90
4530;DHT22;2277;51.626;7.516;2023-07-31T10:24:04;18.50;99.90
4530;DHT22;2277;51.626;7.516;2023-07-31T10:26:31;18.50;99.90
4530;DHT22;2277;51.626;7.516;2023-07-31T10:28:59;18.50;99.90
4530;DHT22;2277;51.626;7.516;2023-07-31T10:31:27;18.50;99.90
4530;DHT22;2277;51.626;7.516;2023-07-31T10:33:54;18.50;99.90
4530;DHT22;2277;51.626;7.516;2023-07-31T10:36:21;18.50;99.90
4530;DHT22;2277;51.626;7.516;2023-07-31T10:38:49;18.50;99.90
4530;DHT22;2277;51.626;7.516;2023-07-31T10:41:16;18.40;99.90
4530;DHT22;2277;51.626;7.516;2023-07-31T10:43:42;18.40;99.90
4530;DHT22;2277;51.626;7.516;2023-07-31T10:46:14;18.40;99.90
4530;DHT22;2277;51.626;7.516;2023-07-31T10:48:41;18.50;99.90
4530;DHT22;2277;51.626;7.516;2023-07-31T10:51:08;18.50;99.90
4530;DHT22;2277;51.626;7.516;2023-07-31T10:53:35;18.60;99.90
4530;DHT22;2277;51.626;7.516;2023-07-31T10:56:05;18.70;99.90
4530;DHT22;2277;51.626;7.516;2023-07-31T10:58:32;18.70;99.90
4530;DHT22;2277;51.626;7.516;2023-07-31T11:01:00;18.70;99.90
4530;DHT22;2277;51.626;7.516;2023-07-31T11:03:27;18.70;99.90
4530;DHT22;2277;51.626;7.516;2023-07-31T11:06:05;18.70;99.90
4530;DHT22;2277;51.626;7.516;2023-07-31T11:08:32;18.70;99.90
4530;DHT22;2277;51.626;7.516;2023-07-31T11:13:42;18.60;99.90
4530;DHT22;2277;51.626;7.516;2023-07-31T11:16:09;18.60;99.90
4530;DHT22;2277;51.626;7.516;2023-07-31T11:18:35;18.60;99.90
4530;DHT22;2277;51.626;7.516;2023-07-31T11:21:02;18.60;99.90
4530;DHT22;2277;51.626;7.516;2023-07-31T11:23:27;18.60;99.90
4530;DHT22;2277;51.626;7.516;2023-07-31T11:25:53;18.60;99.90
4530;DHT22;2277;51.626;7.516;2023-07-31T11:28:24;18.60;99.90
4530;DHT22;2277;51.626;7.516;2023-07-31T11:30:50;18.60;99.90
4530;DHT22;2277;51.626;7.516;2023-07-31T11:33:15;18.60;99.90
4530;DHT22;2277;51.626;7.516;2023-07-31T11:35:48;18.60;99.90
4530;DHT22;2277;51.626;7.516;2023-07-31T11:38:29;18.60;99.90
4530;DHT22;2277;51.626;7.516;2023-07-31T11:40:59;18.70;99.90
4530;DHT22;2277;51.626;7.516;2023-07-31T11:43:25;18.70;99.90
4530;DHT22;2277;51.626;7.516;2023-07-31T11:45:56;18.70;99.90
4530;DHT22;2277;51.626;7.516;2023-07-31T11:48:30;18.80;99.90
4530;DHT22;2277;51.626;7.516;2023-07-31T11:51:04;18.80;99.90
4530;DHT22;2277;51.626;7.516;2023-07-31T11:56:09;18.80;99.90
4530;DHT22;2277;51.626;7.516;2023-07-31T11:58:37;19.00;99.90
4530;DHT22;2277;51.626;7.516;2023-07-31T12:01:04;19.00;99.90
4530;DHT22;2277;51.626;7.516;2023-07-31T12:03:31;19.00;99.90
4530;DHT22;2277;51.626;7.516;2023-07-31T12:05:57;19.20;99.90
4530;DHT22;2277;51.626;7.516;2023-07-31T12:08:24;19.20;99.90
4530;DHT22;2277;51.626;7.516;2023-07-31T12:10:51;19.40;99.90
4530;DHT22;2277;51.626;7.516;2023-07-31T12:13:22;19.40;99.90
4530;DHT22;2277;51.626;7.516;2023-07-31T12:15:48;19.40;99.90
4530;DHT22;2277;51.626;7.516;2023-07-31T12:18:19;19.40;99.90
4530;DHT22;2277;51.626;7.516;2023-07-31T12:20:47;19.50;99.90
4530;DHT22;2277;51.626;7.516;2023-07-31T12:25:39;19.60;99.90
4530;DHT22;2277;51.626;7.516;2023-07-31T12:28:06;19.60;99.90
4530;DHT22;2277;51.626;7.516;2023-07-31T12:30:34;19.70;99.90
4530;DHT22;2277;51.626;7.516;2023-07-31T12:33:10;19.70;99.90
4530;DHT22;2277;51.626;7.516;2023-07-31T12:35:39;19.80;99.90
4530;DHT22;2277;51.626;7.516;2023-07-31T12:38:05;19.80;99.90
4530;DHT22;2277;51.626;7.516;2023-07-31T12:40:32;19.80;99.90
4530;DHT22;2277;51.626;7.516;2023-07-31T12:42:58;19.90;99.90
4530;DHT22;2277;51.626;7.516;2023-07-31T12:45:23;19.90;99.90
4530;DHT22;2277;51.626;7.516;2023-07-31T12:47:49;20.00;99.90
4530;DHT22;2277;51.626;7.516;2023-07-31T12:50:15;19.90;99.90
4530;DHT22;2277;51.626;7.516;2023-07-31T12:52:41;20.00;99.90
4530;DHT22;2277;51.626;7.516;2023-07-31T12:55:07;20.00;99.90
4530;DHT22;2277;51.626;7.516;2023-07-31T12:57:32;20.00;99.90
4530;DHT22;2277;51.626;7.516;2023-07-31T12:59:58;20.00;99.90
4530;DHT22;2277;51.626;7.516;2023-07-31T13:02:23;20.00;99.90
4530;DHT22;2277;51.626;7.516;2023-07-31T13:04:50;20.10;99.90
4530;DHT22;2277;51.626;7.516;2023-07-31T13:07:15;20.10;99.90
4530;DHT22;2277;51.626;7.516;2023-07-31T13:09:41;20.00;99.90
4530;DHT22;2277;51.626;7.516;2023-07-31T13:12:07;19.90;99.90
4530;DHT22;2277;51.626;7.516;2023-07-31T13:14:32;19.90;99.90
4530;DHT22;2277;51.626;7.516;2023-07-31T13:16:58;19.80;99.90
4530;DHT22;2277;51.626;7.516;2023-07-31T13:19:24;19.80;99.90
4530;DHT22;2277;51.626;7.516;2023-07-31T13:21:49;19.90;99.90
4530;DHT22;2277;51.626;7.516;2023-07-31T13:24:15;19.80;99.90
4530;DHT22;2277;51.626;7.516;2023-07-31T13:26:41;19.80;99.90
4530;DHT22;2277;51.626;7.516;2023-07-31T13:29:06;19.80;99.90
4530;DHT22;2277;51.626;7.516;2023-07-31T13:31:32;19.80;99.90
4530;DHT22;2277;51.626;7.516;2023-07-31T13:33:57;19.90;99.90
4530;DHT22;2277;51.626;7.516;2023-07-31T13:36:23;19.90;99.90
4530;DHT22;2277;51.626;7.516;2023-07-31T13:38:49;19.90;99.90
4530;DHT22;2277;51.626;7.516;2023-07-31T13:41:14;20.00;99.90
4530;DHT22;2277;51.626;7.516;2023-07-31T13:43:40;20.00;99.90
4530;DHT22;2277;51.626;7.516;2023-07-31T13:46:06;20.00;99.90
4530;DHT22;2277;51.626;7.516;2023-07-31T13:48:35;20.00;99.90
4530;DHT22;2277;51.626;7.516;2023-07-31T13:51:01;20.00;99.90
4530;DHT22;2277;51.626;7.516;2023-07-31T13:53:27;20.00;99.90
4530;DHT22;2277;51.626;7.516;2023-07-31T13:55:52;19.90;99.90
4530;DHT22;2277;51.626;7.516;2023-07-31T13:58:18;20.00;99.90
4530;DHT22;2277;51.626;7.516;2023-07-31T14:00:43;19.90;99.90
4530;DHT22;2277;51.626;7.516;2023-07-31T14:03:09;20.00;99.90
4530;DHT22;2277;51.626;7.516;2023-07-31T14:05:35;20.00;99.90
4530;DHT22;2277;51.626;7.516;2023-07-31T14:08:00;20.00;99.90
4530;DHT22;2277;51.626;7.516;2023-07-31T14:10:26;20.00;99.90
4530;DHT22;2277;51.626;7.516;2023-07-31T14:12:52;20.10;99.90
4530;DHT22;2277;51.626;7.516;2023-07-31T14:15:17;20.10;99.90
4530;DHT22;2277;51.626;7.516;2023-07-31T14:17:43;20.20;99.90
4530;DHT22;2277;51.626;7.516;2023-07-31T14:20:10;20.10;99.90
4530;DHT22;2277;51.626;7.516;2023-07-31T14:22:36;20.20;99.90
4530;DHT22;2277;51.626;7.516;2023-07-31T14:25:03;20.30;99.90
4530;DHT22;2277;51.626;7.516;2023-07-31T14:27:29;20.40;99.90
4530;DHT22;2277;51.626;7.516;2023-07-31T14:29:54;20.40;99.90
4530;DHT22;2277;51.626;7.516;2023-07-31T14:32:21;20.40;99.90
4530;DHT22;2277;51.626;7.516;2023-07-31T14:34:48;20.50;99.90
4530;DHT22;2277;51.626;7.516;2023-07-31T14:37:14;20.50;99.90
4530;DHT22;2277;51.626;7.516;2023-07-31T14:39:39;20.50;99.90
4530;DHT22;2277;51.626;7.516;2023-07-31T14:42:05;20.50;99.90
4530;DHT22;2277;51.626;7.516;2023-07-31T14:44:31;20.50;99.90
4530;DHT22;2277;51.626;7.516;2023-07-31T14:46:56;20.50;99.90
4530;DHT22;2277;51.626;7.516;2023-07-31T14:49:22;20.50;99.90
4530;DHT22;2277;51.626;7.516;2023-07-31T14:51:47;20.60;99.90
4530;DHT22;2277;51.626;7.516;2023-07-31T14:54:13;20.70;99.90
4530;DHT22;2277;51.626;7.516;2023-07-31T14:56:39;20.70;99.90
4530;DHT22;2277;51.626;7.516;2023-07-31T14:59:04;20.70;99.90
4530;DHT22;2277;51.626;7.516;2023-07-31T15:01:30;20.70;99.90
4530;DHT22;2277;51.626;7.516;2023-07-31T15:03:55;20.70;99.90
4530;DHT22;2277;51.626;7.516;2023-07-31T15:06:21;20.60;99.90
4530;DHT22;2277;51.626;7.516;2023-07-31T15:08:46;20.60;99.90
4530;DHT22;2277;51.626;7.516;2023-07-31T15:11:12;20.80;99.90
4530;DHT22;2277;51.626;7.516;2023-07-31T15:13:38;20.70;99.90
4530;DHT22;2277;51.626;7.516;2023-07-31T15:16:04;20.70;99.90
4530;DHT22;2277;51.626;7.516;2023-07-31T15:18:29;20.70;99.90
4530;DHT22;2277;51.626;7.516;2023-07-31T15:20:55;20.70;99.90
4530;DHT22;2277;51.626;7.516;2023-07-31T15:23:20;20.70;99.90
4530;DHT22;2277;51.626;7.516;2023-07-31T15:25:46;20.70;99.90
4530;DHT22;2277;51.626;7.516;2023-07-31T15:28:11;20.70;99.90
4530;DHT22;2277;51.626;7.516;2023-07-31T15:30:37;20.70;99.90
4530;DHT22;2277;51.626;7.516;2023-07-31T15:33:03;20.70;99.90
4530;DHT22;2277;51.626;7.516;2023-07-31T15:35:29;20.70;99.90
4530;DHT22;2277;51.626;7.516;2023-07-31T15:37:54;20.60;99.90
4530;DHT22;2277;51.626;7.516;2023-07-31T15:40:20;20.60;99.90
4530;DHT22;2277;51.626;7.516;2023-07-31T15:42:46;20.60;99.90
4530;DHT22;2277;51.626;7.516;2023-07-31T15:45:11;20.60;99.90
4530;DHT22;2277;51.626;7.516;2023-07-31T15:47:37;20.70;99.90
4530;DHT22;2277;51.626;7.516;2023-07-31T15:50:03;20.70;99.90
4530;DHT22;2277;51.626;7.516;2023-07-31T15:52:29;20.70;99.90
4530;DHT22;2277;51.626;7.516;2023-07-31T15:54:55;20.70;99.90
4530;DHT22;2277;51.626;7.516;2023-07-31T15:57:20;20.70;99.90
4530;DHT22;2277;51.626;7.516;2023-07-31T15:59:46;20.60;99.90
4530;DHT22;2277;51.626;7.516;2023-07-31T16:02:11;20.60;99.90
4530;DHT22;2277;51.626;7.516;2023-07-31T16:04:39;20.70;99.90
4530;DHT22;2277;51.626;7.516;2023-07-31T16:07:05;20.60;99.90
4530;DHT22;2277;51.626;7.516;2023-07-31T16:09:31;20.60;99.90
4530;DHT22;2277;51.626;7.516;2023-07-31T16:11:57;20.60;99.90